createdAt,value
2023-01-17T00:02:18.763Z,1.20
2023-01-17T00:05:09.777Z,1.73
2023-01-17T00:07:55.576Z,0.90
2023-01-17T00:10:27.154Z,1.20
2023-01-17T00:13:03.512Z,1.23
2023-01-17T00:15:31.799Z,1.30
2023-01-17T00:17:59.225Z,1.00
2023-01-17T00:20:48.628Z,1.10
2023-01-17T00:23:38.985Z,0.90
2023-01-17T00:26:19.212Z,0.90
2023-01-17T00:28:47.005Z,1.23
2023-01-17T00:31:16.390Z,0.97
2023-01-17T00:33:43.722Z,1.10
2023-01-17T00:36:11.828Z,0.80
2023-01-17T00:38:40.703Z,0.73
2023-01-17T00:41:15.635Z,0.50
2023-01-17T00:44:01.669Z,0.40
2023-01-17T00:46:47.091Z,0.50
2023-01-17T00:49:33.375Z,0.37
2023-01-17T00:52:19.880Z,0.37
2023-01-17T00:55:05.607Z,0.30
2023-01-17T00:57:51.583Z,0.50
2023-01-17T01:00:38.088Z,0.40
2023-01-17T01:03:31.145Z,0.40
2023-01-17T01:06:17.108Z,0.43
2023-01-17T01:09:03.186Z,0.40
2023-01-17T01:11:48.865Z,0.53
2023-01-17T01:14:34.797Z,0.67
2023-01-17T01:17:20.706Z,0.70
2023-01-17T01:20:06.676Z,0.70
2023-01-17T01:22:52.388Z,0.80
2023-01-17T01:25:37.725Z,0.90
2023-01-17T01:28:26.463Z,0.70
2023-01-17T01:31:12.348Z,0.90
2023-01-17T01:33:39.701Z,0.90
2023-01-17T01:36:09.047Z,0.90
2023-01-17T01:38:36.729Z,1.10
2023-01-17T01:41:05.479Z,0.90
2023-01-17T01:43:50.174Z,1.00
2023-01-17T01:46:24.167Z,1.00
2023-01-17T01:49:05.834Z,1.00
2023-01-17T01:51:48.703Z,1.20
2023-01-17T01:54:25.978Z,1.10
2023-01-17T01:56:57.000Z,1.30
2023-01-17T01:59:24.459Z,1.23
2023-01-17T02:01:55.490Z,1.33
2023-01-17T02:04:24.138Z,1.47
2023-01-17T02:07:13.545Z,1.30
2023-01-17T02:09:40.825Z,1.47
2023-01-17T02:12:09.071Z,1.27
2023-01-17T02:14:36.166Z,1.17
2023-01-17T02:17:12.147Z,1.20
2023-01-17T02:20:14.369Z,0.90
2023-01-17T02:22:55.699Z,1.07
2023-01-17T02:25:54.733Z,0.90
2023-01-17T02:28:37.087Z,1.10
2023-01-17T02:31:37.049Z,0.60
2023-01-17T02:34:36.020Z,0.70
2023-01-17T02:37:11.869Z,0.90
2023-01-17T02:39:56.355Z,0.70
2023-01-17T02:42:30.127Z,0.90
2023-01-17T02:44:57.741Z,0.67
2023-01-17T02:47:31.494Z,0.70
2023-01-17T02:50:24.186Z,0.70
2023-01-17T02:52:55.146Z,0.63
2023-01-17T02:55:43.425Z,0.70
2023-01-17T02:59:00.977Z,0.60
2023-01-17T03:01:54.309Z,0.60
2023-01-17T03:04:29.901Z,0.73
2023-01-17T03:07:10.279Z,0.53
2023-01-17T03:09:38.894Z,0.70
2023-01-17T03:12:06.651Z,0.80
2023-01-17T03:14:34.342Z,0.60
2023-01-17T03:17:01.792Z,0.73
2023-01-17T03:19:29.298Z,0.80
2023-01-17T03:21:56.312Z,0.83
2023-01-17T03:24:23.989Z,0.80
2023-01-17T03:26:50.964Z,0.80
2023-01-17T03:29:18.195Z,0.93
2023-01-17T03:31:46.543Z,0.77
2023-01-17T03:34:13.795Z,1.17
2023-01-17T03:36:40.788Z,1.53
2023-01-17T03:39:08.117Z,1.23
2023-01-17T03:41:35.193Z,1.80
2023-01-17T03:44:02.371Z,1.50
2023-01-17T03:46:29.628Z,1.27
2023-01-17T03:48:56.729Z,1.30
2023-01-17T03:51:23.864Z,1.50
2023-01-17T03:53:52.008Z,1.37
2023-01-17T03:56:19.191Z,1.23
2023-01-17T03:58:46.638Z,1.33
2023-01-17T04:01:13.977Z,1.23
2023-01-17T04:03:40.999Z,1.00
2023-01-17T04:06:08.477Z,0.90
2023-01-17T04:08:35.770Z,1.00
2023-01-17T04:11:02.886Z,1.20
2023-01-17T04:13:29.839Z,1.00
2023-01-17T04:15:57.036Z,1.00
2023-01-17T04:18:25.031Z,0.90
2023-01-17T04:20:52.379Z,0.70
2023-01-17T04:23:19.788Z,0.70
2023-01-17T04:25:47.067Z,0.77
2023-01-17T04:28:14.091Z,0.97
2023-01-17T04:30:41.432Z,1.00
2023-01-17T04:33:08.626Z,0.80
2023-01-17T04:35:36.016Z,1.00
2023-01-17T04:38:03.236Z,1.00
2023-01-17T04:40:30.250Z,1.37
2023-01-17T04:42:58.286Z,1.47
2023-01-17T04:45:25.805Z,1.90
2023-01-17T04:47:52.988Z,2.30
2023-01-17T04:50:20.133Z,2.97
2023-01-17T04:52:47.193Z,2.90
2023-01-17T04:55:16.024Z,4.50
2023-01-17T04:57:43.097Z,5.23
2023-01-17T05:00:11.847Z,6.37
2023-01-17T05:02:39.040Z,6.57
2023-01-17T05:05:07.282Z,8.90
2023-01-17T05:07:35.809Z,8.23
2023-01-17T05:10:03.320Z,8.23
2023-01-17T05:12:30.667Z,8.60
2023-01-17T05:14:57.821Z,9.43
2023-01-17T05:17:25.062Z,8.77
2023-01-17T05:19:52.429Z,9.37
2023-01-17T05:22:19.417Z,9.80
2023-01-17T05:24:47.909Z,9.43
2023-01-17T05:27:15.579Z,9.53
2023-01-17T05:29:42.790Z,9.20
2023-01-17T05:32:09.925Z,8.17
2023-01-17T05:34:37.302Z,8.60
2023-01-17T05:37:04.414Z,8.63
2023-01-17T05:39:31.485Z,8.17
2023-01-17T05:41:59.708Z,7.83
2023-01-17T05:44:27.771Z,8.73
2023-01-17T05:46:56.342Z,7.30
2023-01-17T05:49:23.572Z,7.70
2023-01-17T05:51:51.676Z,6.80
2023-01-17T05:54:19.415Z,7.20
2023-01-17T05:56:46.507Z,7.07
2023-01-17T05:59:14.344Z,7.13
2023-01-17T06:01:41.721Z,7.03
2023-01-17T06:04:08.978Z,6.97
2023-01-17T06:06:36.066Z,8.00
2023-01-17T06:09:03.417Z,7.50
2023-01-17T06:11:30.608Z,7.20
2023-01-17T06:13:57.630Z,7.00
2023-01-17T06:16:24.779Z,6.73
2023-01-17T06:18:51.886Z,7.33
2023-01-17T06:21:19.809Z,7.07
2023-01-17T06:23:47.058Z,7.60
2023-01-17T06:26:14.251Z,7.30
2023-01-17T06:28:41.296Z,7.40
2023-01-17T06:31:11.571Z,7.23
2023-01-17T06:33:38.690Z,7.70
2023-01-17T06:36:06.142Z,7.17
2023-01-17T06:38:33.437Z,8.27
2023-01-17T06:41:05.706Z,8.70
2023-01-17T06:43:34.342Z,8.27
2023-01-17T06:46:01.780Z,8.47
2023-01-17T06:48:29.127Z,8.03
2023-01-17T06:50:58.007Z,8.40
2023-01-17T06:53:28.080Z,9.53
2023-01-17T06:55:58.247Z,8.53
2023-01-17T06:58:25.268Z,8.77
2023-01-17T07:00:52.570Z,8.83
2023-01-17T07:03:24.482Z,9.87
2023-01-17T07:05:53.184Z,9.87
2023-01-17T07:08:20.704Z,10.00
2023-01-17T07:10:48.905Z,9.70
2023-01-17T07:13:16.321Z,9.27
2023-01-17T07:15:43.392Z,11.20
2023-01-17T07:18:10.456Z,11.00
2023-01-17T07:20:38.444Z,10.30
2023-01-17T07:23:06.724Z,10.60
2023-01-17T07:25:33.865Z,11.20
2023-01-17T07:28:00.860Z,10.93
2023-01-17T07:30:27.938Z,11.67
2023-01-17T07:32:55.615Z,11.70
2023-01-17T07:35:26.743Z,10.97
2023-01-17T07:37:54.795Z,12.60
2023-01-17T07:40:22.823Z,11.70
2023-01-17T07:42:49.884Z,12.00
2023-01-17T07:45:17.779Z,12.40
2023-01-17T07:47:45.456Z,12.53
2023-01-17T07:50:13.703Z,12.17
2023-01-17T07:52:40.894Z,12.20
2023-01-17T07:55:09.177Z,12.57
2023-01-17T07:57:36.351Z,12.27
2023-01-17T08:00:04.952Z,12.73
2023-01-17T08:02:31.984Z,12.77
2023-01-17T08:04:59.105Z,12.93
2023-01-17T08:07:26.207Z,12.70
2023-01-17T08:09:54.932Z,13.73
2023-01-17T08:12:22.004Z,13.17
2023-01-17T08:14:49.277Z,12.97
2023-01-17T08:17:18.049Z,12.03
2023-01-17T08:19:45.147Z,12.17
2023-01-17T08:22:12.544Z,13.07
2023-01-17T08:24:39.668Z,12.23
2023-01-17T08:27:09.129Z,12.23
2023-01-17T08:29:37.014Z,12.67
2023-01-17T08:32:04.541Z,12.87
2023-01-17T08:34:33.898Z,12.27
2023-01-17T08:37:00.915Z,12.83
2023-01-17T08:39:28.825Z,12.40
2023-01-17T08:41:57.397Z,13.30
2023-01-17T08:44:24.586Z,13.43
2023-01-17T08:46:51.807Z,12.27
2023-01-17T08:49:19.065Z,11.60
2023-01-17T08:51:46.113Z,12.77
2023-01-17T08:54:15.224Z,12.57
2023-01-17T08:56:46.981Z,12.43
2023-01-17T08:59:14.291Z,12.83
2023-01-17T09:01:42.068Z,12.17
2023-01-17T09:04:10.763Z,11.93
2023-01-17T09:06:40.449Z,11.13
2023-01-17T09:09:08.778Z,11.07
2023-01-17T09:11:35.822Z,11.00
2023-01-17T09:14:02.882Z,11.47
2023-01-17T09:16:30.967Z,10.67
2023-01-17T09:18:59.463Z,10.30
2023-01-17T09:21:27.279Z,11.03
2023-01-17T09:23:55.896Z,10.33
2023-01-17T09:26:27.403Z,10.80
2023-01-17T09:28:55.510Z,9.70
2023-01-17T09:31:23.604Z,9.13
2023-01-17T09:33:52.075Z,10.70
2023-01-17T09:36:20.136Z,11.17
2023-01-17T09:38:47.715Z,9.30
2023-01-17T09:41:37.226Z,10.33
2023-01-17T09:44:29.284Z,9.80
2023-01-17T09:47:04.895Z,10.13
2023-01-17T09:49:45.791Z,9.63
2023-01-17T09:52:17.868Z,8.87
2023-01-17T09:54:48.511Z,8.90
2023-01-17T09:57:30.610Z,9.20
2023-01-17T10:00:09.434Z,8.43
2023-01-17T10:03:03.555Z,8.83
2023-01-17T10:05:53.821Z,8.33
2023-01-17T10:08:29.596Z,8.23
2023-01-17T10:11:41.063Z,8.03
2023-01-17T10:14:56.527Z,8.37
2023-01-17T10:17:41.748Z,9.13
2023-01-17T10:20:08.594Z,8.83
2023-01-17T10:23:28.146Z,8.37
2023-01-17T10:26:08.132Z,7.13
2023-01-17T10:28:51.543Z,7.67
2023-01-17T10:31:27.899Z,7.67
2023-01-17T10:34:18.104Z,7.90
2023-01-17T10:37:00.452Z,7.97
2023-01-17T10:39:30.651Z,7.00
2023-01-17T10:42:54.536Z,7.93
2023-01-17T10:45:28.430Z,7.37
2023-01-17T10:48:15.766Z,7.27
2023-01-17T10:51:27.341Z,7.10
2023-01-17T10:54:12.575Z,7.57
2023-01-17T10:56:41.682Z,7.67
2023-01-17T10:59:32.463Z,7.03
2023-01-17T11:02:06.875Z,7.10
2023-01-17T11:04:42.412Z,6.77
2023-01-17T11:07:28.194Z,6.53
2023-01-17T11:09:57.890Z,7.00
2023-01-17T11:12:47.480Z,6.47
2023-01-17T11:15:19.811Z,5.97
2023-01-17T11:17:52.918Z,5.77
2023-01-17T11:20:38.380Z,6.20
2023-01-17T11:23:15.735Z,5.20
2023-01-17T11:25:58.512Z,5.63
2023-01-17T11:28:34.926Z,5.50
2023-01-17T11:31:27.401Z,4.73
2023-01-17T11:34:23.966Z,3.77
2023-01-17T11:37:19.361Z,3.77
2023-01-17T11:39:49.969Z,4.07
2023-01-17T11:42:38.942Z,3.70
2023-01-17T11:45:26.837Z,3.80
2023-01-17T11:48:10.010Z,3.70
2023-01-17T11:50:58.861Z,3.60
2023-01-17T11:53:39.640Z,3.93
2023-01-17T11:56:18.436Z,3.87
2023-01-17T11:58:47.194Z,4.03
2023-01-17T12:01:42.928Z,3.67
2023-01-17T12:04:28.033Z,3.77
2023-01-17T12:07:03.301Z,3.87
2023-01-17T12:10:19.131Z,3.20
2023-01-17T12:13:43.835Z,3.13
2023-01-17T12:16:33.152Z,3.20
2023-01-17T12:19:18.537Z,3.13
2023-01-17T12:22:19.972Z,3.17
2023-01-17T12:25:24.733Z,3.27
2023-01-17T12:28:15.304Z,3.20
2023-01-17T12:31:12.993Z,2.70
2023-01-17T12:34:21.853Z,2.90
2023-01-17T12:37:02.123Z,2.57
2023-01-17T12:39:39.425Z,2.23
2023-01-17T12:42:20.503Z,2.50
2023-01-17T12:45:22.510Z,1.60
2023-01-17T12:47:59.172Z,1.30
2023-01-17T12:50:42.921Z,1.77
2023-01-17T12:53:27.207Z,1.80
2023-01-17T12:56:27.559Z,1.70
2023-01-17T12:59:16.066Z,1.70
2023-01-17T13:01:57.648Z,1.90
2023-01-17T13:04:41.989Z,1.57
2023-01-17T13:08:02.375Z,2.03
2023-01-17T13:11:06.214Z,1.93
2023-01-17T13:13:35.633Z,2.10
2023-01-17T13:16:17.666Z,1.33
2023-01-17T13:18:48.094Z,1.90
2023-01-17T13:21:31.373Z,1.87
2023-01-17T13:24:03.882Z,1.90
2023-01-17T13:26:55.969Z,1.93
2023-01-17T13:29:32.802Z,2.17
2023-01-17T13:32:52.678Z,1.70
2023-01-17T13:35:44.969Z,1.50
2023-01-17T13:39:24.709Z,1.73
2023-01-17T13:42:02.755Z,2.07
2023-01-17T13:44:31.923Z,2.07
2023-01-17T13:47:17.382Z,1.80
2023-01-17T13:49:50.667Z,1.70
2023-01-17T13:52:20.641Z,2.47
2023-01-17T13:55:18.578Z,1.70
2023-01-17T13:57:46.749Z,1.60
2023-01-17T14:00:16.324Z,2.23
2023-01-17T14:02:44.103Z,1.70
2023-01-17T14:05:29.725Z,1.63
2023-01-17T14:08:02.538Z,2.03
2023-01-17T14:11:05.022Z,2.40
2023-01-17T14:13:31.896Z,4.13
2023-01-17T14:15:59.112Z,2.70
2023-01-17T14:18:43.871Z,1.90
2023-01-17T14:21:23.543Z,2.27
2023-01-17T14:24:10.446Z,1.87
2023-01-17T14:26:59.146Z,1.77
2023-01-17T14:29:58.908Z,1.83
2023-01-17T14:32:37.309Z,1.60
2023-01-17T14:35:23.642Z,2.00
2023-01-17T14:37:57.594Z,1.80
2023-01-17T14:40:30.522Z,2.07
2023-01-17T14:43:15.746Z,1.83
2023-01-17T14:45:43.645Z,1.50
2023-01-17T14:48:21.049Z,1.80
2023-01-17T14:50:51.393Z,1.80
2023-01-17T14:53:32.061Z,1.93
2023-01-17T14:56:14.018Z,2.10
2023-01-17T14:58:41.506Z,1.80
2023-01-17T15:01:21.393Z,1.83
2023-01-17T15:03:53.505Z,1.90
2023-01-17T15:06:25.263Z,2.20
2023-01-17T15:08:55.207Z,2.50
2023-01-17T15:11:32.055Z,2.20
2023-01-17T15:14:05.743Z,2.47
2023-01-17T15:16:38.191Z,2.10
2023-01-17T15:19:15.457Z,2.20
2023-01-17T15:21:45.674Z,2.27
2023-01-17T15:24:20.926Z,2.53
2023-01-17T15:26:49.160Z,2.23
2023-01-17T15:29:26.627Z,2.60
2023-01-17T15:32:00.827Z,2.13
2023-01-17T15:34:43.972Z,2.23
2023-01-17T15:37:31.091Z,2.30
2023-01-17T15:40:26.098Z,2.10
2023-01-17T15:43:01.348Z,2.17
2023-01-17T15:45:32.043Z,2.00
2023-01-17T15:48:38.503Z,2.37
2023-01-17T15:51:06.224Z,2.07
2023-01-17T15:53:38.041Z,2.43
2023-01-17T15:56:33.609Z,2.40
2023-01-17T15:59:39.244Z,1.93
2023-01-17T16:02:37.304Z,2.57
2023-01-17T16:05:43.660Z,2.40
2023-01-17T16:08:10.826Z,2.37
2023-01-17T16:10:39.179Z,2.13
2023-01-17T16:13:09.730Z,2.20
2023-01-17T16:15:37.874Z,2.40
2023-01-17T16:18:24.204Z,2.37
2023-01-17T16:21:19.758Z,2.40
2023-01-17T16:23:47.771Z,2.37
2023-01-17T16:26:15.717Z,2.50
2023-01-17T16:28:43.350Z,2.63
2023-01-17T16:31:10.567Z,3.33
2023-01-17T16:33:37.994Z,2.50
2023-01-17T16:36:06.175Z,2.07
2023-01-17T16:38:33.221Z,2.50
2023-01-17T16:41:04.577Z,2.70
2023-01-17T16:43:31.842Z,2.67
2023-01-17T16:45:59.087Z,3.00
2023-01-17T16:48:26.131Z,3.20
2023-01-17T16:50:53.314Z,3.73
2023-01-17T16:53:26.047Z,4.07
2023-01-17T16:55:57.442Z,3.23
2023-01-17T16:58:25.469Z,3.90
2023-01-17T17:00:55.218Z,3.70
2023-01-17T17:03:22.711Z,4.17
2023-01-17T17:06:01.261Z,3.80
2023-01-17T17:08:29.551Z,4.33
2023-01-17T17:11:16.418Z,4.73
2023-01-17T17:13:46.717Z,4.60
2023-01-17T17:16:21.854Z,4.30
2023-01-17T17:19:00.983Z,4.80
2023-01-17T17:21:29.608Z,5.27
2023-01-17T17:23:59.723Z,4.70
2023-01-17T17:26:31.033Z,4.47
2023-01-17T17:28:58.673Z,4.90
2023-01-17T17:31:26.225Z,4.90
2023-01-17T17:33:57.237Z,5.50
2023-01-17T17:36:24.446Z,4.70
2023-01-17T17:38:55.442Z,4.23
2023-01-17T17:41:29.579Z,4.20
2023-01-17T17:43:57.057Z,4.90
2023-01-17T17:46:26.269Z,4.00
2023-01-17T17:48:53.829Z,4.37
2023-01-17T17:51:32.817Z,3.70
2023-01-17T17:54:09.834Z,4.07
2023-01-17T17:56:38.346Z,5.07
2023-01-17T17:59:14.015Z,4.83
2023-01-17T18:01:41.678Z,4.77
2023-01-17T18:04:10.021Z,5.27
2023-01-17T18:06:38.664Z,5.27
2023-01-17T18:09:08.468Z,6.13
2023-01-17T18:11:36.836Z,6.87
2023-01-17T18:14:09.449Z,6.17
2023-01-17T18:16:41.721Z,5.67
2023-01-17T18:19:16.659Z,6.17
2023-01-17T18:21:44.218Z,6.47
2023-01-17T18:24:14.674Z,6.30
2023-01-17T18:26:51.719Z,5.90
2023-01-17T18:29:21.291Z,6.43
2023-01-17T18:31:50.508Z,7.27
2023-01-17T18:34:23.746Z,10.50
2023-01-17T18:36:51.980Z,11.37
2023-01-17T18:39:24.646Z,12.17
2023-01-17T18:41:52.150Z,12.93
2023-01-17T18:44:22.683Z,11.80
2023-01-17T18:46:59.697Z,10.47
2023-01-17T18:49:26.831Z,13.27
2023-01-17T18:51:53.891Z,12.27
2023-01-17T18:54:21.480Z,10.10
2023-01-17T18:56:49.259Z,10.33
2023-01-17T18:59:21.405Z,12.93
2023-01-17T19:01:48.582Z,11.73
2023-01-17T19:04:17.336Z,11.67
2023-01-17T19:06:47.855Z,11.17
2023-01-17T19:09:16.809Z,11.57
2023-01-17T19:11:45.211Z,11.43
2023-01-17T19:14:12.854Z,11.37
2023-01-17T19:16:42.132Z,11.50
2023-01-17T19:19:13.960Z,21.37
2023-01-17T19:21:41.087Z,17.73
2023-01-17T19:24:13.093Z,12.87
2023-01-17T19:26:40.868Z,12.70
2023-01-17T19:29:08.050Z,13.00
2023-01-17T19:31:42.454Z,17.43
2023-01-17T19:34:10.359Z,56.70
2023-01-17T19:36:38.502Z,59.13
2023-01-17T19:39:09.507Z,33.80
2023-01-17T19:41:42.436Z,27.63
2023-01-17T19:44:12.227Z,29.07
2023-01-17T19:46:39.274Z,20.73
2023-01-17T19:49:08.828Z,18.57
2023-01-17T19:51:36.782Z,16.00
2023-01-17T19:54:06.558Z,14.57
2023-01-17T19:56:34.223Z,13.37
2023-01-17T19:59:01.984Z,13.27
2023-01-17T20:01:40.688Z,13.00
2023-01-17T20:04:08.108Z,13.20
2023-01-17T20:06:36.861Z,12.97
2023-01-17T20:09:05.996Z,14.03
2023-01-17T20:11:33.464Z,14.03
2023-01-17T20:14:01.171Z,13.40
2023-01-17T20:16:31.647Z,13.93
2023-01-17T20:19:02.574Z,13.27
2023-01-17T20:21:31.476Z,13.80
2023-01-17T20:24:00.399Z,14.10
2023-01-17T20:26:34.819Z,14.80
2023-01-17T20:29:13.053Z,14.13
2023-01-17T20:31:43.050Z,14.03
2023-01-17T20:34:14.008Z,13.97
2023-01-17T20:36:43.511Z,15.23
2023-01-17T20:39:14.130Z,14.07
2023-01-17T20:41:43.828Z,14.33
2023-01-17T20:44:15.352Z,15.30
2023-01-17T20:46:42.839Z,15.13
2023-01-17T20:49:19.167Z,15.77
2023-01-17T20:51:47.348Z,16.20
2023-01-17T20:54:19.103Z,16.13
2023-01-17T20:56:47.841Z,16.00
2023-01-17T20:59:21.809Z,17.13
2023-01-17T21:01:50.389Z,16.70
2023-01-17T21:04:24.933Z,18.73
2023-01-17T21:06:53.377Z,16.83
2023-01-17T21:09:23.486Z,16.63
2023-01-17T21:11:51.893Z,16.93
2023-01-17T21:14:19.320Z,17.07
2023-01-17T21:16:46.446Z,17.30
2023-01-17T21:19:16.533Z,16.03
2023-01-17T21:21:43.810Z,16.47
2023-01-17T21:24:16.370Z,16.17
2023-01-17T21:26:45.399Z,15.47
2023-01-17T21:29:15.969Z,15.83
2023-01-17T21:31:43.860Z,16.10
2023-01-17T21:34:13.688Z,15.43
2023-01-17T21:36:42.729Z,14.83
2023-01-17T21:39:18.737Z,17.23
2023-01-17T21:41:50.696Z,15.90
2023-01-17T21:44:24.076Z,15.27
2023-01-17T21:46:54.191Z,16.20
2023-01-17T21:49:23.046Z,17.30
2023-01-17T21:51:53.244Z,15.30
2023-01-17T21:54:47.510Z,16.70
2023-01-17T21:57:36.964Z,17.73
2023-01-17T22:00:06.851Z,15.67
2023-01-17T22:02:33.938Z,17.40
2023-01-17T22:05:01.229Z,15.77
2023-01-17T22:07:29.113Z,16.53
2023-01-17T22:09:56.962Z,15.50
2023-01-17T22:12:24.080Z,16.40
2023-01-17T22:14:51.373Z,16.33
2023-01-17T22:17:18.505Z,16.53
2023-01-17T22:19:46.081Z,17.30
2023-01-17T22:22:13.777Z,16.20
2023-01-17T22:24:40.969Z,15.53
2023-01-17T22:27:10.010Z,16.37
2023-01-17T22:29:38.037Z,15.23
2023-01-17T22:32:05.523Z,16.93
2023-01-17T22:34:32.553Z,16.40
2023-01-17T22:37:00.386Z,16.23
2023-01-17T22:39:27.485Z,16.23
2023-01-17T22:41:57.386Z,14.30
2023-01-17T22:44:24.592Z,14.23
2023-01-17T22:46:51.667Z,15.47
2023-01-17T22:49:23.357Z,14.87
2023-01-17T22:51:51.493Z,13.87
2023-01-17T22:54:19.621Z,13.23
2023-01-17T22:56:46.872Z,12.97
2023-01-17T22:59:14.021Z,13.30
2023-01-17T23:01:41.178Z,12.60
2023-01-17T23:04:13.400Z,13.10
2023-01-17T23:06:41.946Z,13.27
2023-01-17T23:09:12.405Z,12.73
2023-01-17T23:11:47.177Z,12.53
2023-01-17T23:14:53.563Z,12.03
2023-01-17T23:17:41.631Z,11.90
2023-01-17T23:20:10.871Z,10.83
2023-01-17T23:22:38.512Z,12.00
2023-01-17T23:25:10.969Z,11.37
2023-01-17T23:28:00.435Z,11.97
2023-01-17T23:30:34.750Z,11.43
2023-01-17T23:33:03.866Z,11.30
2023-01-17T23:35:41.265Z,11.50
2023-01-17T23:38:33.684Z,11.53
2023-01-17T23:41:27.035Z,12.10
2023-01-17T23:43:58.247Z,10.93
2023-01-17T23:46:26.555Z,11.33
2023-01-17T23:48:55.139Z,11.97
2023-01-17T23:51:22.338Z,11.33
2023-01-17T23:53:51.250Z,11.07
2023-01-17T23:56:26.651Z,11.53
2023-01-17T23:58:53.913Z,10.87
